createdAt,value
2018-05-17T00:01:56.265Z,5.03
2018-05-17T00:05:58.935Z,5.27
2018-05-17T00:10:01.575Z,5.53
2018-05-17T00:14:04.211Z,5.67
2018-05-17T00:18:07.618Z,5.10
2018-05-17T00:22:10.222Z,4.87
2018-05-17T00:26:13.636Z,5.90
2018-05-17T00:30:16.301Z,4.83
2018-05-17T00:34:18.941Z,6.13
2018-05-17T00:38:21.636Z,6.20
2018-05-17T00:42:24.299Z,5.97
2018-05-17T00:46:26.935Z,5.73
2018-05-17T00:50:30.348Z,4.40
2018-05-17T00:54:33.813Z,4.87
2018-05-17T00:58:36.452Z,5.00
2018-05-17T01:02:39.065Z,4.80
2018-05-17T01:06:41.713Z,5.80
2018-05-17T01:10:45.114Z,4.97
2018-05-17T01:14:47.765Z,4.33
2018-05-17T01:18:50.481Z,4.70
2018-05-17T01:22:53.129Z,5.10
2018-05-17T01:26:55.776Z,5.10
2018-05-17T01:30:59.181Z,4.80
2018-05-17T01:35:02.672Z,5.73
2018-05-17T01:39:05.317Z,5.40
2018-05-17T01:43:07.963Z,4.60
2018-05-17T01:47:10.613Z,5.20
2018-05-17T01:51:13.288Z,4.93
2018-05-17T01:55:15.928Z,5.67
2018-05-17T01:59:19.308Z,5.53
2018-05-17T02:03:22.762Z,5.40
2018-05-17T02:07:25.403Z,4.97
2018-05-17T02:11:28.053Z,6.20
2018-05-17T02:15:30.949Z,4.07
2018-05-17T02:19:33.561Z,5.97
2018-05-17T02:23:36.206Z,5.63
2018-05-17T02:27:38.875Z,6.20
2018-05-17T02:31:41.509Z,4.70
2018-05-17T02:35:44.159Z,4.97
2018-05-17T02:39:47.539Z,4.73
2018-05-17T02:43:50.180Z,5.07
2018-05-17T02:47:52.828Z,6.27
2018-05-17T02:51:55.482Z,5.80
2018-05-17T02:55:58.116Z,5.40
2018-05-17T03:00:01.549Z,5.53
2018-05-17T03:04:04.210Z,4.80
2018-05-17T03:08:07.679Z,4.77
2018-05-17T03:12:10.335Z,4.87
2018-05-17T03:16:12.984Z,4.93
2018-05-17T03:20:15.643Z,5.10
2018-05-17T03:24:18.283Z,5.67
2018-05-17T03:28:21.696Z,6.13
2018-05-17T03:32:24.336Z,5.73
2018-05-17T03:36:26.983Z,5.13
2018-05-17T03:40:29.588Z,7.07
2018-05-17T03:44:32.239Z,4.90
2018-05-17T03:48:35.648Z,5.23
2018-05-17T03:52:39.064Z,4.80
2018-05-17T03:56:41.796Z,5.37
2018-05-17T04:00:56.232Z,4.83
2018-05-17T04:05:10.760Z,7.40
2018-05-17T04:09:13.384Z,4.37
2018-05-17T04:13:16.027Z,6.37
2018-05-17T04:17:18.673Z,4.73
2018-05-17T04:21:21.275Z,6.40
2018-05-17T04:25:23.920Z,4.40
2018-05-17T04:29:27.328Z,4.83
2018-05-17T04:33:29.969Z,5.00
2018-05-17T04:37:32.671Z,5.53
2018-05-17T04:41:35.275Z,4.80
2018-05-17T04:45:38.683Z,5.37
2018-05-17T04:49:42.092Z,5.93
2018-05-17T04:53:45.503Z,6.13
2018-05-17T04:57:48.964Z,6.13
2018-05-17T05:01:51.577Z,6.07
2018-05-17T05:05:54.220Z,4.60
2018-05-17T05:09:56.867Z,6.60
2018-05-17T05:14:00.272Z,5.60
2018-05-17T05:18:02.953Z,5.53
2018-05-17T05:22:05.628Z,6.17
2018-05-17T05:26:08.335Z,6.33
2018-05-17T05:30:11.032Z,6.27
2018-05-17T05:34:14.466Z,6.27
2018-05-17T05:38:17.110Z,5.20
2018-05-17T05:42:19.722Z,6.80
2018-05-17T05:46:23.153Z,5.93
2018-05-17T05:50:25.815Z,6.33
2018-05-17T05:54:29.228Z,5.53
2018-05-17T05:58:32.641Z,6.93
2018-05-17T06:02:35.309Z,6.77
2018-05-17T06:06:38.720Z,5.63
2018-05-17T06:10:42.133Z,8.23
2018-05-17T06:14:45.536Z,8.37
2018-05-17T06:18:48.947Z,9.20
2018-05-17T06:22:52.320Z,11.23
2018-05-17T06:26:54.976Z,10.27
2018-05-17T06:30:57.625Z,9.10
2018-05-17T06:35:01.036Z,10.27
2018-05-17T06:39:05.273Z,10.83
2018-05-17T06:43:07.937Z,8.63
2018-05-17T06:47:11.353Z,9.77
2018-05-17T06:51:14.764Z,8.77
2018-05-17T06:55:18.175Z,8.53
2018-05-17T06:59:20.816Z,9.63
2018-05-17T07:03:23.434Z,7.63
2018-05-17T07:07:26.845Z,7.13
2018-05-17T07:11:30.243Z,8.23
2018-05-17T07:15:33.704Z,7.80
2018-05-17T07:19:36.386Z,9.67
2018-05-17T07:23:39.054Z,7.87
2018-05-17T07:27:41.696Z,7.50
2018-05-17T07:31:44.374Z,7.50
2018-05-17T07:35:47.020Z,6.00
2018-05-17T07:39:49.664Z,4.37
2018-05-17T07:43:52.280Z,5.37
2018-05-17T07:47:55.698Z,6.77
2018-05-17T07:51:58.403Z,5.37
2018-05-17T07:56:01.050Z,5.80
2018-05-17T08:00:04.462Z,4.80
2018-05-17T08:04:07.839Z,6.23
2018-05-17T08:08:11.288Z,6.33
2018-05-17T08:12:13.932Z,6.13
2018-05-17T08:16:16.588Z,5.17
2018-05-17T08:20:19.234Z,6.63
2018-05-17T08:28:29.710Z,5.97
2018-05-17T08:32:32.352Z,4.97
2018-05-17T08:36:35.130Z,5.13
2018-05-17T08:40:37.696Z,5.13
2018-05-17T08:44:40.318Z,6.00
2018-05-17T08:48:42.988Z,5.47
2018-05-17T08:52:46.421Z,4.90
2018-05-17T08:56:49.084Z,6.00
2018-05-17T09:00:52.546Z,5.50
2018-05-17T09:04:55.191Z,6.40
2018-05-17T09:08:58.598Z,5.57
2018-05-17T09:13:01.235Z,6.17
2018-05-17T09:17:03.880Z,5.17
2018-05-17T09:21:07.389Z,4.67
2018-05-17T09:25:10.099Z,4.83
2018-05-17T09:29:12.775Z,7.40
2018-05-17T09:33:15.419Z,7.10
2018-05-17T09:37:18.071Z,5.37
2018-05-17T09:41:20.822Z,5.53
2018-05-17T09:45:23.467Z,5.50
2018-05-17T09:49:26.107Z,5.77
2018-05-17T09:53:29.516Z,5.33
2018-05-17T09:57:32.156Z,6.17
2018-05-17T10:01:34.776Z,6.47
2018-05-17T10:05:38.187Z,5.77
2018-05-17T10:09:41.593Z,5.97
2018-05-17T10:13:45.009Z,5.93
2018-05-17T10:17:48.412Z,6.33
2018-05-17T10:21:51.904Z,6.10
2018-05-17T10:25:54.626Z,5.73
2018-05-17T10:29:57.285Z,5.70
2018-05-17T10:33:59.920Z,4.63
2018-05-17T10:38:02.541Z,5.77
2018-05-17T10:42:05.275Z,5.87
2018-05-17T10:46:08.660Z,6.60
2018-05-17T10:50:12.062Z,5.50
2018-05-17T10:54:14.711Z,5.80
2018-05-17T10:58:17.320Z,6.63
2018-05-17T11:02:19.968Z,5.27
2018-05-17T11:06:22.612Z,6.23
2018-05-17T11:10:25.257Z,5.03
2018-05-17T11:14:28.008Z,5.63
2018-05-17T11:18:31.395Z,5.57
2018-05-17T11:22:34.089Z,6.70
2018-05-17T11:26:36.733Z,5.10
2018-05-17T11:30:39.423Z,4.97
2018-05-17T11:34:42.031Z,5.60
2018-05-17T11:38:44.679Z,5.13
2018-05-17T11:42:47.319Z,6.00
2018-05-17T11:46:49.981Z,5.57
2018-05-17T11:50:52.627Z,5.73
2018-05-17T11:54:56.052Z,4.80
2018-05-17T11:58:58.695Z,5.33
2018-05-17T12:03:02.065Z,5.50
2018-05-17T12:07:04.716Z,5.73
2018-05-17T12:11:08.120Z,5.00
2018-05-17T12:15:11.496Z,6.60
2018-05-17T12:19:14.136Z,6.20
2018-05-17T12:23:16.770Z,4.90
2018-05-17T12:27:19.417Z,5.93
2018-05-17T12:31:22.061Z,5.33
2018-05-17T12:35:24.715Z,5.37
2018-05-17T12:39:27.364Z,5.47
2018-05-17T12:43:30.007Z,5.73
2018-05-17T12:47:32.675Z,5.43
2018-05-17T12:51:35.345Z,6.27
2018-05-17T12:55:37.983Z,6.00
2018-05-17T12:59:40.640Z,5.13
2018-05-17T13:03:43.341Z,5.67
2018-05-17T13:07:46.001Z,5.97
2018-05-17T13:11:48.616Z,6.00
2018-05-17T13:15:51.280Z,4.47
2018-05-17T13:19:53.929Z,7.93
2018-05-17T13:23:57.339Z,5.17
2018-05-17T13:28:00.763Z,5.77
2018-05-17T13:32:03.379Z,5.67
2018-05-17T13:36:06.788Z,6.07
2018-05-17T13:40:09.473Z,5.17
2018-05-17T13:44:12.125Z,4.83
2018-05-17T13:48:15.537Z,5.33
2018-05-17T13:52:18.144Z,5.13
2018-05-17T13:56:20.791Z,4.60
2018-05-17T14:00:23.672Z,6.50
2018-05-17T14:04:26.323Z,4.60
2018-05-17T14:08:28.985Z,5.27
2018-05-17T14:12:31.600Z,5.17
2018-05-17T14:16:34.243Z,5.07
2018-05-17T14:20:36.927Z,4.70
2018-05-17T14:24:39.588Z,4.60
2018-05-17T14:28:42.204Z,4.93
2018-05-17T14:32:45.607Z,5.07
2018-05-17T14:36:48.306Z,5.37
2018-05-17T14:40:51.712Z,5.80
2018-05-17T14:44:55.116Z,5.13
2018-05-17T14:48:58.485Z,5.17
2018-05-17T14:53:01.130Z,5.77
2018-05-17T14:57:03.768Z,6.07
2018-05-17T15:01:06.488Z,6.07
2018-05-17T15:05:09.096Z,6.77
2018-05-17T15:09:11.715Z,6.40
2018-05-17T15:13:14.372Z,6.30
2018-05-17T15:17:17.014Z,6.40
2018-05-17T15:21:20.460Z,5.97
2018-05-17T15:25:23.100Z,7.23
2018-05-17T15:29:25.708Z,6.53
2018-05-17T15:33:28.357Z,7.67
2018-05-17T15:37:31.000Z,6.70
2018-05-17T15:41:34.471Z,7.83
2018-05-17T15:45:37.100Z,6.87
2018-05-17T15:49:40.476Z,6.90
2018-05-17T15:53:43.124Z,9.03
2018-05-17T15:57:45.757Z,6.97
2018-05-17T16:01:48.408Z,7.20
2018-05-17T16:05:51.076Z,7.10
2018-05-17T16:09:53.694Z,6.77
2018-05-17T16:13:56.337Z,7.80
2018-05-17T16:17:59.066Z,6.77
2018-05-17T16:22:01.705Z,6.80
2018-05-17T16:26:05.146Z,6.93
2018-05-17T16:30:07.787Z,6.60
2018-05-17T16:34:10.488Z,7.60
2018-05-17T16:38:13.899Z,7.10
2018-05-17T16:42:17.315Z,6.73
2018-05-17T16:46:20.735Z,6.87
2018-05-17T16:50:23.396Z,5.83
2018-05-17T16:54:26.837Z,7.90
2018-05-17T16:58:29.513Z,5.73
2018-05-17T17:02:32.137Z,7.40
2018-05-17T17:06:34.784Z,7.33
2018-05-17T17:10:37.433Z,7.40
2018-05-17T17:14:40.080Z,7.23
2018-05-17T17:18:42.781Z,6.27
2018-05-17T17:22:45.439Z,6.23
2018-05-17T17:26:48.092Z,6.80
2018-05-17T17:30:50.754Z,7.30
2018-05-17T17:34:53.395Z,6.53
2018-05-17T17:38:56.803Z,7.20
2018-05-17T17:43:00.238Z,6.23
2018-05-17T17:47:02.886Z,6.70
2018-05-17T17:51:05.565Z,6.27
2018-05-17T17:55:08.268Z,6.93
2018-05-17T17:59:11.736Z,6.87
2018-05-17T18:03:14.343Z,6.60
2018-05-17T18:07:16.991Z,6.00
2018-05-17T18:11:19.623Z,6.47
2018-05-17T18:15:22.268Z,6.03
2018-05-17T18:19:24.885Z,6.07
2018-05-17T18:23:27.588Z,6.33
2018-05-17T18:27:30.244Z,6.30
2018-05-17T18:31:32.883Z,6.60
2018-05-17T18:35:36.297Z,6.23
2018-05-17T18:39:39.666Z,6.40
2018-05-17T18:43:42.314Z,5.87
2018-05-17T18:47:44.966Z,5.87
2018-05-17T18:51:47.615Z,6.00
2018-05-17T18:55:50.270Z,5.20
2018-05-17T18:59:52.875Z,5.40
2018-05-17T19:03:55.503Z,5.90
2018-05-17T19:07:58.144Z,7.07
2018-05-17T19:12:00.784Z,5.00
2018-05-17T19:16:03.441Z,5.03
2018-05-17T19:20:06.136Z,5.47
2018-05-17T19:24:08.770Z,5.87
2018-05-17T19:28:12.182Z,5.40
2018-05-17T19:32:14.870Z,6.13
2018-05-17T19:36:17.512Z,4.63
2018-05-17T19:40:20.162Z,5.77
2018-05-17T19:44:22.804Z,5.50
2018-05-17T19:48:25.448Z,5.30
2018-05-17T19:52:28.150Z,5.43
2018-05-17T19:56:30.763Z,4.70
2018-05-17T20:00:33.402Z,4.93
2018-05-17T20:04:36.042Z,5.80
2018-05-17T20:08:38.680Z,7.13
2018-05-17T20:12:41.341Z,4.80
2018-05-17T20:16:44.716Z,5.83
2018-05-17T20:20:48.151Z,6.03
2018-05-17T20:24:50.799Z,5.60
2018-05-17T20:28:53.461Z,5.10
2018-05-17T20:32:56.116Z,5.63
2018-05-17T20:36:58.761Z,6.33
2018-05-17T20:41:01.401Z,6.13
2018-05-17T20:45:04.860Z,5.37
2018-05-17T20:49:07.541Z,5.30
2018-05-17T20:53:10.148Z,6.27
2018-05-17T20:57:12.795Z,6.37
2018-05-17T21:01:15.494Z,5.07
2018-05-17T21:05:18.184Z,5.30
2018-05-17T21:09:20.981Z,5.50
2018-05-17T21:13:23.693Z,5.90
2018-05-17T21:17:26.341Z,5.83
2018-05-17T21:21:28.972Z,6.00
2018-05-17T21:25:31.617Z,5.87
2018-05-17T21:29:34.256Z,5.90
2018-05-17T21:33:37.655Z,5.63
2018-05-17T21:37:40.344Z,5.87
2018-05-17T21:41:43.021Z,5.13
2018-05-17T21:45:45.720Z,5.53
2018-05-17T21:49:48.362Z,5.83
2018-05-17T21:53:51.796Z,6.77
2018-05-17T21:57:54.440Z,5.67
2018-05-17T22:01:57.849Z,6.33
2018-05-17T22:06:01.261Z,5.53
2018-05-17T22:10:04.626Z,6.20
2018-05-17T22:14:07.267Z,6.53
2018-05-17T22:18:09.913Z,5.57
2018-05-17T22:22:12.652Z,5.77
2018-05-17T22:26:15.314Z,4.50
2018-05-17T22:30:18.801Z,5.97
2018-05-17T22:34:21.457Z,4.47
2018-05-17T22:38:24.101Z,5.43
2018-05-17T22:42:27.509Z,5.40
2018-05-17T22:46:30.976Z,7.03
2018-05-17T22:50:35.200Z,5.23
2018-05-17T22:54:37.846Z,5.10
2018-05-17T22:58:40.484Z,5.20
2018-05-17T23:02:43.146Z,5.63
2018-05-17T23:06:45.752Z,5.83
2018-05-17T23:10:48.444Z,5.43
2018-05-17T23:14:51.090Z,5.57
2018-05-17T23:18:53.736Z,5.33
2018-05-17T23:22:56.381Z,6.47
2018-05-17T23:26:58.994Z,5.07
2018-05-17T23:31:01.642Z,5.93
2018-05-17T23:35:04.275Z,5.97
2018-05-17T23:39:06.973Z,6.17
2018-05-17T23:43:09.620Z,6.07
2018-05-17T23:47:12.223Z,7.50
2018-05-17T23:51:14.920Z,5.37
2018-05-17T23:55:17.611Z,6.33
2018-05-17T23:59:20.253Z,6.90
